createdAt,value
2022-10-05T00:01:23.102Z,5.12
2022-10-05T00:03:49.806Z,4.93
2022-10-05T00:06:16.398Z,4.91
2022-10-05T00:08:43.057Z,4.13
2022-10-05T00:11:11.427Z,5.30
2022-10-05T00:13:38.042Z,4.88
2022-10-05T00:16:10.736Z,5.54
2022-10-05T00:18:37.649Z,4.79
2022-10-05T00:24:56.127Z,4.81
2022-10-05T00:27:24.780Z,4.31
2022-10-05T00:29:52.249Z,5.29
2022-10-05T00:32:18.879Z,4.43
2022-10-05T00:34:45.593Z,3.91
2022-10-05T00:37:12.215Z,4.82
2022-10-05T00:39:39.049Z,4.26
2022-10-05T00:42:19.315Z,3.63
2022-10-05T00:44:45.782Z,5.18
2022-10-05T00:47:18.248Z,5.17
2022-10-05T00:50:13.918Z,5.17
2022-10-05T00:53:04.822Z,5.18
2022-10-05T00:55:50.086Z,4.90
2022-10-05T00:58:27.321Z,5.16
2022-10-05T01:01:13.187Z,4.94
2022-10-05T01:04:20.565Z,5.12
2022-10-05T01:06:50.106Z,5.08
2022-10-05T01:09:38.838Z,4.67
2022-10-05T01:12:16.700Z,5.07
2022-10-05T01:14:58.554Z,5.06
2022-10-05T01:17:40.303Z,5.03
2022-10-05T01:20:16.892Z,4.97
2022-10-05T01:23:11.357Z,4.96
2022-10-05T01:25:45.210Z,4.92
2022-10-05T01:28:19.943Z,4.89
2022-10-05T01:30:52.183Z,4.49
2022-10-05T01:33:37.997Z,4.04
2022-10-05T01:36:15.285Z,4.78
2022-10-05T01:38:43.807Z,1.66
2022-10-05T01:41:16.681Z,4.79
2022-10-05T01:44:16.168Z,4.59
2022-10-05T01:47:03.714Z,4.07
2022-10-05T01:49:47.107Z,4.83
2022-10-05T01:52:32.314Z,4.80
2022-10-05T01:55:20.247Z,4.78
2022-10-05T01:58:07.006Z,4.77
2022-10-05T02:00:55.861Z,3.65
2022-10-05T02:03:25.435Z,3.99
2022-10-05T02:05:55.582Z,3.27
2022-10-05T02:08:29.541Z,4.32
2022-10-05T02:11:10.180Z,4.41
2022-10-05T02:13:58.560Z,4.59
2022-10-05T02:16:29.715Z,3.96
2022-10-05T02:19:08.398Z,3.23
2022-10-05T02:21:35.023Z,4.01
2022-10-05T02:24:50.496Z,4.49
2022-10-05T02:27:21.579Z,4.18
2022-10-05T02:29:48.422Z,2.75
2022-10-05T02:32:32.688Z,4.08
2022-10-05T02:35:04.330Z,4.40
2022-10-05T02:37:46.358Z,4.36
2022-10-05T02:40:40.412Z,4.35
2022-10-05T02:43:16.454Z,4.34
2022-10-05T02:46:27.482Z,4.33
2022-10-05T02:48:58.280Z,3.63
2022-10-05T02:51:27.734Z,3.37
2022-10-05T02:54:11.055Z,2.33
2022-10-05T02:56:45.257Z,3.54
2022-10-05T02:59:15.977Z,4.30
2022-10-05T03:01:49.275Z,3.14
2022-10-05T03:04:34.322Z,3.98
2022-10-05T03:07:26.629Z,3.97
2022-10-05T03:10:17.475Z,4.25
2022-10-05T03:13:01.426Z,4.03
2022-10-05T03:15:48.925Z,3.65
2022-10-05T03:18:28.617Z,4.22
2022-10-05T03:21:19.978Z,4.22
2022-10-05T03:23:46.602Z,4.22
2022-10-05T03:26:16.113Z,4.21
2022-10-05T03:29:33.583Z,4.20
2022-10-05T03:32:00.920Z,4.19
2022-10-05T03:34:34.217Z,3.91
2022-10-05T03:37:28.626Z,4.18
2022-10-05T03:40:02.198Z,4.18
2022-10-05T03:42:47.009Z,4.20
2022-10-05T03:45:25.617Z,4.25
2022-10-05T03:48:08.761Z,4.28
2022-10-05T03:51:13.171Z,4.31
2022-10-05T03:53:45.976Z,4.05
2022-10-05T03:56:34.512Z,4.33
2022-10-05T03:59:20.612Z,3.82
2022-10-05T04:01:58.234Z,3.82
2022-10-05T04:04:30.986Z,4.30
2022-10-05T04:06:58.161Z,3.37
2022-10-05T04:09:28.662Z,2.81
2022-10-05T04:11:55.598Z,4.34
2022-10-05T04:14:39.270Z,4.07
2022-10-05T04:17:10.719Z,3.97
2022-10-05T04:19:44.361Z,3.96
2022-10-05T04:22:24.196Z,4.28
2022-10-05T04:24:54.205Z,4.27
2022-10-05T04:27:42.456Z,3.54
2022-10-05T04:30:17.647Z,2.96
2022-10-05T04:32:55.975Z,4.02
2022-10-05T04:35:44.361Z,4.22
2022-10-05T04:38:32.688Z,4.21
2022-10-05T04:41:02.214Z,4.18
2022-10-05T04:43:59.308Z,4.18
2022-10-05T04:46:47.789Z,4.17
2022-10-05T04:49:45.120Z,4.07
2022-10-05T04:52:34.839Z,4.20
2022-10-05T04:55:13.547Z,4.24
2022-10-05T04:57:45.978Z,4.24
2022-10-05T05:00:21.862Z,4.32
2022-10-05T05:03:19.595Z,4.43
2022-10-05T05:06:16.028Z,4.47
2022-10-05T05:12:55.229Z,4.52
2022-10-05T05:15:33.886Z,4.32
2022-10-05T05:18:09.381Z,4.54
2022-10-05T05:20:57.043Z,4.60
2022-10-05T05:23:54.659Z,4.53
2022-10-05T05:26:27.422Z,4.23
2022-10-05T05:29:17.588Z,4.18
2022-10-05T05:31:57.954Z,4.51
2022-10-05T05:34:47.335Z,4.50
2022-10-05T05:37:26.511Z,4.59
2022-10-05T05:39:55.935Z,4.85
2022-10-05T05:42:48.671Z,4.30
2022-10-05T05:45:17.826Z,4.16
2022-10-05T05:47:54.439Z,4.07
2022-10-05T05:50:24.388Z,4.77
2022-10-05T05:52:54.229Z,4.30
2022-10-05T05:55:29.718Z,4.58
2022-10-05T05:57:59.545Z,4.39
2022-10-05T06:00:31.941Z,4.66
2022-10-05T06:03:13.826Z,4.99
2022-10-05T06:05:58.377Z,4.88
2022-10-05T06:08:27.281Z,5.16
2022-10-05T06:11:32.113Z,5.27
2022-10-05T06:14:00.968Z,4.73
2022-10-05T06:16:59.859Z,5.52
2022-10-05T06:19:26.577Z,5.34
2022-10-05T06:22:04.255Z,5.80
2022-10-05T06:24:50.783Z,5.46
2022-10-05T06:27:39.630Z,6.11
2022-10-05T06:33:59.826Z,6.13
2022-10-05T06:36:40.863Z,6.82
2022-10-05T06:39:31.738Z,7.00
2022-10-05T06:42:26.429Z,7.12
2022-10-05T06:45:17.264Z,7.24
2022-10-05T06:47:52.953Z,7.13
2022-10-05T06:50:38.349Z,7.49
2022-10-05T06:53:07.782Z,7.55
2022-10-05T06:55:56.383Z,7.47
2022-10-05T06:58:35.067Z,7.89
2022-10-05T07:01:06.384Z,7.91
2022-10-05T07:03:51.196Z,8.29
2022-10-05T07:06:43.479Z,8.59
2022-10-05T07:09:25.254Z,8.88
2022-10-05T07:12:29.557Z,9.15
2022-10-05T07:15:06.297Z,9.50
2022-10-05T07:17:55.957Z,8.99
2022-10-05T07:20:34.507Z,9.93
2022-10-05T07:23:24.646Z,9.37
2022-10-05T07:26:09.736Z,10.59
2022-10-05T07:28:39.369Z,11.02
2022-10-05T07:31:15.166Z,11.46
2022-10-05T07:34:01.956Z,11.78
2022-10-05T07:37:07.180Z,12.08
2022-10-05T07:39:58.970Z,11.65
2022-10-05T07:42:51.545Z,12.37
2022-10-05T07:45:27.984Z,12.93
2022-10-05T07:47:59.551Z,12.33
2022-10-05T09:29:54.642Z,15.74
2022-10-05T09:32:57.899Z,15.66
2022-10-05T09:35:55.318Z,15.56
2022-10-05T09:38:50.353Z,15.52
2022-10-05T09:41:35.697Z,15.47
2022-10-05T09:44:20.925Z,15.43
2022-10-05T09:47:04.227Z,15.11
2022-10-05T09:49:42.847Z,15.46
2022-10-05T09:52:19.054Z,14.46
2022-10-05T09:54:56.949Z,15.63
2022-10-05T09:57:57.646Z,15.77
2022-10-05T10:00:26.967Z,15.90
2022-10-05T10:03:09.966Z,16.03
2022-10-05T10:06:10.632Z,15.52
2022-10-05T10:09:01.852Z,16.18
2022-10-05T10:11:41.725Z,16.22
2022-10-05T10:14:14.450Z,16.26
2022-10-05T10:17:07.087Z,16.28
2022-10-05T10:19:57.118Z,15.88
2022-10-05T10:23:05.116Z,16.42
2022-10-05T10:26:30.684Z,16.49
2022-10-05T10:29:12.159Z,16.52
2022-10-05T10:31:50.605Z,16.53
2022-10-05T10:34:40.110Z,16.52
2022-10-05T10:37:28.391Z,16.50
2022-10-05T10:40:06.868Z,16.43
2022-10-05T10:42:52.201Z,16.41
2022-10-05T10:45:48.196Z,16.38
2022-10-05T10:48:43.641Z,16.39
2022-10-05T10:51:10.143Z,16.34
2022-10-05T10:54:03.659Z,16.30
2022-10-05T10:56:36.168Z,16.24
2022-10-05T10:59:33.799Z,16.24
2022-10-05T11:02:19.278Z,16.29
2022-10-05T11:04:53.769Z,16.34
2022-10-05T11:07:23.387Z,16.42
2022-10-05T11:09:55.954Z,16.50
2022-10-05T11:13:19.495Z,16.57
2022-10-05T11:16:23.017Z,16.59
2022-10-05T11:19:13.663Z,16.56
2022-10-05T11:25:44.407Z,16.62
2022-10-05T11:28:23.923Z,16.59
2022-10-05T11:31:25.411Z,16.04
2022-10-05T11:34:27.438Z,16.54
2022-10-05T11:36:57.013Z,16.55
2022-10-05T11:39:39.437Z,16.07
2022-10-05T11:42:05.960Z,16.50
2022-10-05T11:44:57.749Z,16.48
2022-10-05T11:47:48.487Z,16.02
2022-10-05T11:50:38.543Z,15.21
2022-10-05T11:57:14.303Z,16.18
2022-10-05T12:00:25.438Z,16.25
2022-10-05T12:06:49.032Z,16.33
2022-10-05T12:10:01.668Z,16.29
2022-10-05T12:12:29.583Z,14.98
2022-10-05T12:15:00.357Z,16.20
2022-10-05T12:17:43.567Z,15.61
2022-10-05T12:20:54.453Z,15.94
2022-10-05T12:23:30.463Z,16.20
2022-10-05T12:26:11.170Z,16.17
2022-10-05T12:28:49.767Z,16.07
2022-10-05T12:31:19.514Z,16.05
2022-10-05T12:33:51.425Z,16.00
2022-10-05T12:36:46.195Z,15.28
2022-10-05T12:39:29.883Z,15.92
2022-10-05T12:41:59.387Z,15.95
2022-10-05T12:45:13.748Z,15.93
2022-10-05T12:48:02.457Z,15.03
2022-10-05T12:50:35.583Z,15.35
2022-10-05T12:53:28.815Z,15.55
2022-10-05T12:56:06.187Z,14.96
2022-10-05T12:59:11.251Z,15.51
2022-10-05T13:01:40.920Z,15.85
2022-10-05T13:04:22.274Z,15.84
2022-10-05T13:07:06.185Z,14.20
2022-10-05T13:09:40.611Z,15.89
2022-10-05T13:12:44.803Z,14.97
2022-10-05T13:15:25.302Z,15.49
2022-10-05T13:18:00.781Z,15.88
2022-10-05T13:20:34.229Z,14.92
2022-10-05T13:23:34.846Z,15.38
2022-10-05T13:26:03.180Z,14.59
2022-10-05T13:29:03.521Z,14.46
2022-10-05T13:31:57.011Z,15.47
2022-10-05T13:34:28.872Z,15.99
2022-10-05T13:36:58.383Z,16.00
2022-10-05T13:39:46.897Z,15.97
2022-10-05T13:42:19.679Z,16.00
2022-10-05T13:44:59.123Z,15.24
2022-10-05T13:47:47.703Z,15.88
2022-10-05T13:50:31.186Z,14.06
2022-10-05T13:53:11.467Z,14.49
2022-10-05T13:55:43.480Z,15.90
2022-10-05T13:58:32.874Z,15.86
2022-10-05T14:01:13.207Z,14.99
2022-10-05T14:03:41.263Z,14.39
2022-10-05T14:06:14.201Z,14.94
2022-10-05T14:08:48.857Z,15.10
2022-10-05T14:11:31.677Z,15.43
2022-10-05T14:14:16.353Z,14.55
2022-10-05T14:16:53.936Z,14.58
2022-10-05T14:19:40.818Z,15.54
2022-10-05T14:22:22.451Z,15.02
2022-10-05T14:24:56.987Z,15.12
2022-10-05T14:27:31.003Z,15.08
2022-10-05T14:30:03.205Z,15.01
2022-10-05T14:32:34.541Z,13.98
2022-10-05T14:35:12.968Z,15.28
2022-10-05T14:38:02.394Z,13.86
2022-10-05T14:40:32.992Z,15.20
2022-10-05T14:43:02.261Z,15.15
2022-10-05T14:45:33.450Z,14.23
2022-10-05T14:48:00.293Z,15.11
2022-10-05T14:50:29.832Z,12.33
2022-10-05T14:53:11.640Z,15.05
2022-10-05T14:56:01.998Z,13.75
2022-10-05T14:58:50.320Z,14.00
2022-10-05T15:01:24.203Z,14.35
2022-10-05T15:04:12.639Z,14.85
2022-10-05T15:06:41.623Z,14.44
2022-10-05T15:09:53.794Z,14.36
2022-10-05T15:12:25.013Z,14.65
2022-10-05T15:14:52.034Z,13.79
2022-10-05T15:17:26.222Z,13.76
2022-10-05T15:20:00.144Z,14.65
2022-10-05T15:22:31.860Z,14.62
2022-10-05T15:25:04.057Z,14.58
2022-10-05T15:27:40.603Z,13.73
2022-10-05T15:34:36.273Z,13.83
2022-10-05T15:37:16.857Z,14.38
2022-10-05T15:39:59.978Z,14.35
2022-10-05T15:42:43.159Z,13.30
2022-10-05T15:45:15.849Z,14.29
2022-10-05T15:48:21.657Z,14.25
2022-10-05T15:50:57.988Z,13.36
2022-10-05T15:53:34.486Z,13.39
2022-10-05T15:56:06.582Z,12.93
2022-10-05T15:58:51.381Z,12.74
2022-10-05T16:01:33.321Z,13.99
2022-10-05T16:04:18.317Z,13.94
2022-10-05T16:07:21.795Z,12.95
2022-10-05T16:10:13.808Z,13.89
2022-10-05T16:13:14.367Z,13.82
2022-10-05T16:15:48.647Z,13.00
2022-10-05T16:18:55.046Z,13.78
2022-10-05T16:21:25.036Z,13.78
2022-10-05T16:24:06.448Z,13.77
2022-10-05T16:26:45.677Z,13.73
2022-10-05T16:29:37.701Z,13.72
2022-10-05T16:32:20.383Z,11.89
2022-10-05T16:35:29.264Z,13.67
2022-10-05T16:38:13.828Z,13.39
2022-10-05T16:41:01.973Z,13.58
2022-10-05T16:43:31.931Z,13.58
2022-10-05T16:46:22.234Z,13.55
2022-10-05T16:48:57.482Z,12.90
2022-10-05T16:52:01.192Z,12.79
2022-10-05T16:54:47.515Z,12.60
2022-10-05T16:57:18.265Z,12.61
2022-10-05T16:59:48.422Z,13.43
2022-10-05T17:02:17.959Z,13.39
2022-10-05T17:05:07.417Z,11.71
2022-10-05T17:07:36.894Z,13.20
2022-10-05T17:10:22.234Z,13.34
2022-10-05T17:13:00.839Z,13.32
2022-10-05T17:15:56.001Z,13.31
2022-10-05T17:19:04.480Z,13.01
2022-10-05T17:21:45.449Z,13.16
2022-10-05T17:24:11.938Z,13.26
2022-10-05T17:27:21.251Z,12.44
2022-10-05T17:29:52.568Z,12.28
2022-10-05T17:32:19.117Z,13.25
2022-10-05T17:35:00.712Z,13.23
2022-10-05T17:37:27.179Z,13.18
2022-10-05T17:39:54.964Z,11.36
2022-10-05T17:42:30.477Z,13.19
2022-10-05T17:45:20.335Z,13.17
2022-10-05T17:48:04.195Z,12.83
2022-10-05T17:50:56.822Z,11.53
2022-10-05T17:54:02.398Z,12.22
2022-10-05T17:56:47.619Z,13.08
2022-10-05T18:03:01.618Z,12.29
2022-10-05T18:05:29.043Z,11.72
2022-10-05T18:08:15.710Z,13.03
2022-10-05T18:11:37.316Z,13.08
2022-10-05T18:14:26.777Z,12.06
2022-10-05T18:16:56.377Z,13.02
2022-10-05T18:19:23.314Z,12.13
2022-10-05T18:21:59.781Z,12.60
2022-10-05T18:24:56.212Z,12.66
2022-10-05T18:27:41.447Z,13.01
2022-10-05T18:30:24.005Z,12.94
2022-10-05T18:32:58.258Z,12.68
2022-10-05T18:35:34.184Z,12.94
2022-10-05T18:38:17.836Z,12.59
2022-10-05T18:40:53.416Z,12.96
2022-10-05T18:43:26.785Z,12.96
2022-10-05T18:45:56.465Z,11.95
2022-10-05T18:48:46.072Z,12.95
2022-10-05T18:51:24.509Z,13.00
2022-10-05T18:54:45.274Z,12.98
2022-10-05T18:57:30.322Z,12.20
2022-10-05T19:00:06.894Z,12.97
2022-10-05T19:02:57.839Z,12.56
2022-10-05T19:05:47.453Z,12.91
2022-10-05T19:08:39.194Z,12.86
2022-10-05T19:11:42.161Z,12.39
2022-10-05T19:14:39.251Z,12.73
2022-10-05T19:17:20.525Z,12.44
2022-10-05T19:19:50.059Z,12.75
2022-10-05T19:22:35.302Z,12.75
2022-10-05T19:25:37.562Z,12.76
2022-10-05T19:28:26.184Z,12.72
2022-10-05T19:31:02.189Z,12.67
2022-10-05T19:33:38.051Z,12.19
2022-10-05T19:36:26.566Z,12.63
2022-10-05T19:39:08.111Z,12.50
2022-10-05T19:42:04.417Z,11.58
2022-10-05T19:44:35.405Z,12.57
2022-10-05T19:47:17.524Z,12.57
2022-10-05T19:49:52.993Z,12.60
2022-10-05T19:52:40.170Z,12.47
2022-10-05T19:55:14.105Z,12.56
2022-10-05T19:57:54.179Z,11.96
2022-10-05T20:00:35.395Z,11.12
2022-10-05T20:03:14.475Z,12.52
2022-10-05T20:05:41.225Z,11.52
2022-10-05T20:08:08.049Z,10.61
2022-10-05T20:10:34.783Z,11.90
2022-10-05T20:13:02.721Z,11.63
2022-10-05T20:16:14.067Z,11.89
2022-10-05T20:19:07.012Z,11.72
2022-10-05T20:22:15.995Z,12.56
2022-10-05T20:24:49.953Z,12.18
2022-10-05T20:27:49.045Z,11.90
2022-10-05T20:30:20.329Z,12.51
2022-10-05T20:32:48.168Z,10.80
2022-10-05T20:35:16.478Z,10.78
2022-10-05T20:38:00.957Z,11.91
2022-10-05T20:40:29.230Z,10.81
2022-10-05T20:42:56.662Z,11.92
2022-10-05T20:45:23.344Z,11.24
2022-10-05T20:47:50.799Z,12.37
2022-10-05T20:50:17.615Z,11.92
2022-10-05T20:52:44.264Z,11.45
2022-10-05T20:55:11.127Z,11.65
2022-10-05T20:57:45.410Z,12.13
2022-10-05T21:00:12.419Z,11.68
2022-10-05T21:02:39.660Z,11.28
2022-10-05T21:05:07.714Z,11.65
2022-10-05T21:07:34.570Z,12.08
2022-10-05T21:10:02.585Z,11.23
2022-10-05T21:12:29.230Z,11.63
2022-10-05T21:14:55.876Z,11.25
2022-10-05T21:17:22.485Z,11.57
2022-10-05T21:19:49.195Z,10.79
2022-10-05T21:22:15.819Z,12.22
2022-10-05T21:24:42.461Z,11.94
2022-10-05T21:27:09.682Z,11.92
2022-10-05T21:29:37.121Z,11.42
2022-10-05T21:32:08.421Z,11.27
2022-10-05T21:34:35.276Z,11.84
2022-10-05T21:37:01.859Z,11.51
2022-10-05T21:39:28.529Z,11.77
2022-10-05T21:41:55.163Z,11.43
2022-10-05T21:44:21.879Z,12.18
2022-10-05T21:46:48.471Z,11.34
2022-10-05T21:49:17.611Z,10.23
2022-10-05T21:51:46.377Z,10.98
2022-10-05T21:54:15.013Z,11.36
2022-10-05T21:56:43.570Z,11.56
2022-10-05T21:59:11.192Z,11.36
2022-10-05T22:01:37.946Z,12.14
2022-10-05T22:04:05.074Z,10.71
2022-10-05T22:06:31.933Z,11.60
2022-10-05T22:08:59.651Z,11.58
2022-10-05T22:11:26.390Z,11.70
2022-10-05T22:13:53.251Z,11.94
2022-10-05T22:16:21.813Z,11.44
2022-10-05T22:18:48.758Z,11.55
2022-10-05T22:21:15.564Z,11.74
2022-10-05T22:23:43.094Z,11.72
2022-10-05T22:26:11.273Z,10.60
2022-10-05T22:28:38.237Z,11.60
2022-10-05T22:31:05.457Z,11.84
2022-10-05T22:33:32.127Z,11.65
2022-10-05T22:35:59.018Z,11.45
2022-10-05T22:38:26.339Z,11.47
2022-10-05T22:40:53.263Z,11.95
2022-10-05T22:43:19.878Z,11.55
2022-10-05T22:45:46.500Z,11.51
2022-10-05T22:48:13.528Z,11.12
2022-10-05T22:50:40.290Z,11.33
2022-10-05T22:53:06.940Z,11.44
2022-10-05T22:55:44.820Z,10.88
2022-10-05T22:58:11.510Z,11.46
2022-10-05T23:00:57.460Z,9.92
2022-10-05T23:03:24.805Z,11.34
2022-10-05T23:06:03.588Z,11.42
2022-10-05T23:08:33.720Z,10.44
2022-10-05T23:11:02.344Z,9.93
2022-10-05T23:13:29.236Z,11.39
2022-10-05T23:15:56.303Z,11.70
2022-10-05T23:18:22.931Z,11.62
2022-10-05T23:20:54.280Z,11.82
2022-10-05T23:23:21.427Z,11.14
2022-10-05T23:25:48.005Z,10.80
2022-10-05T23:28:14.736Z,11.06
2022-10-05T23:30:41.983Z,11.50
2022-10-05T23:33:08.558Z,11.63
2022-10-05T23:35:35.124Z,10.39
2022-10-05T23:38:01.776Z,11.00
2022-10-05T23:40:28.355Z,11.14
2022-10-05T23:42:55.017Z,10.57
2022-10-05T23:45:21.753Z,10.65
2022-10-05T23:47:48.343Z,11.23
2022-10-05T23:50:15.167Z,11.77
2022-10-05T23:52:41.805Z,11.45
2022-10-05T23:55:08.779Z,11.15
2022-10-05T23:57:35.391Z,11.55
